createdAt,value
2024-01-06T00:00:28.316Z,99072.06
2024-01-06T00:02:55.819Z,99077.21
2024-01-06T00:05:23.276Z,99086.09
2024-01-06T00:07:50.879Z,99101.94
2024-01-06T00:10:18.548Z,99114.06
2024-01-06T00:12:46.309Z,99123.67
2024-01-06T00:15:13.856Z,99122.74
2024-01-06T00:17:41.361Z,99115.13
2024-01-06T00:20:09.237Z,99104.36
2024-01-06T00:22:36.974Z,99102.52
2024-01-06T00:25:04.601Z,99104.75
2024-01-06T00:27:32.037Z,99107.37
2024-01-06T00:29:59.480Z,99113.02
2024-01-06T00:32:26.891Z,99108.84
2024-01-06T00:34:54.906Z,99101.03
2024-01-06T00:37:22.333Z,99092.53
2024-01-06T00:39:50.350Z,99085.88
2024-01-06T00:42:17.830Z,99080.27
2024-01-06T00:44:46.718Z,99080.38
2024-01-06T00:47:14.173Z,99076.47
2024-01-06T00:49:41.772Z,99080.84
2024-01-06T00:52:09.280Z,99074.18
2024-01-06T00:54:36.672Z,99076.03
2024-01-06T00:57:04.576Z,99063.38
2024-01-06T00:59:31.974Z,99053.79
2024-01-06T01:01:59.436Z,99042.25
2024-01-06T01:04:27.339Z,99039.63
2024-01-06T01:06:54.992Z,99039.69
2024-01-06T01:09:22.470Z,99046.70
2024-01-06T01:11:49.900Z,99053.05
2024-01-06T01:14:19.674Z,99054.02
2024-01-06T01:16:47.087Z,99058.13
2024-01-06T01:19:14.901Z,99069.34
2024-01-06T01:21:42.356Z,99071.61
2024-01-06T01:24:09.838Z,99073.54
2024-01-06T01:26:37.306Z,99073.20
2024-01-06T01:29:04.725Z,99064.91
2024-01-06T01:31:32.216Z,99063.02
2024-01-06T01:33:59.829Z,99059.55
2024-01-06T01:36:27.355Z,99054.35
2024-01-06T01:38:54.832Z,99048.31
2024-01-06T01:41:22.216Z,99050.42
2024-01-06T01:43:49.620Z,99050.48
2024-01-06T01:46:17.025Z,99042.77
2024-01-06T01:48:44.718Z,99038.36
2024-01-06T01:51:12.198Z,99037.00
2024-01-06T01:53:39.594Z,99037.19
2024-01-06T01:56:07.117Z,99039.45
2024-01-06T01:58:34.500Z,99029.73
2024-01-06T02:01:02.099Z,99010.73
2024-01-06T02:03:30.630Z,99002.91
2024-01-06T02:05:58.067Z,99003.50
2024-01-06T02:08:25.772Z,99006.69
2024-01-06T02:10:54.196Z,99011.77
2024-01-06T02:13:21.688Z,99017.54
2024-01-06T02:15:49.123Z,99017.22
2024-01-06T02:18:16.710Z,99020.06
2024-01-06T02:20:44.406Z,99022.95
2024-01-06T02:23:11.781Z,99018.06
2024-01-06T02:25:39.145Z,99009.27
2024-01-06T02:28:06.687Z,99004.52
2024-01-06T02:30:34.156Z,98997.31
2024-01-06T02:33:01.862Z,98993.23
2024-01-06T02:35:29.323Z,99003.00
2024-01-06T02:37:56.707Z,99005.09
2024-01-06T02:40:24.096Z,99001.70
2024-01-06T02:42:51.670Z,98996.89
2024-01-06T02:45:19.226Z,98993.87
2024-01-06T02:47:46.742Z,98987.30
2024-01-06T02:50:14.177Z,98992.65
2024-01-06T02:52:41.547Z,98990.92
2024-01-06T02:55:08.924Z,98988.27
2024-01-06T02:57:37.124Z,98985.11
2024-01-06T03:00:04.679Z,98977.29
2024-01-06T03:02:32.064Z,98973.07
2024-01-06T03:04:59.494Z,98977.28
2024-01-06T03:07:26.982Z,98965.73
2024-01-06T03:09:54.446Z,98960.27
2024-01-06T03:12:21.931Z,98952.19
2024-01-06T03:14:49.351Z,98949.04
2024-01-06T03:17:16.729Z,98952.56
2024-01-06T03:19:44.939Z,98948.33
2024-01-06T03:22:12.462Z,98956.03
2024-01-06T03:24:41.103Z,98946.23
2024-01-06T03:27:10.135Z,98943.08
2024-01-06T03:29:37.617Z,98946.41
2024-01-06T03:32:05.231Z,98948.89
2024-01-06T03:34:32.796Z,98949.99
2024-01-06T03:37:00.261Z,98942.88
2024-01-06T03:39:27.719Z,98942.42
2024-01-06T03:41:55.145Z,98942.44
2024-01-06T03:44:22.515Z,98933.77
2024-01-06T03:46:49.945Z,98938.88
2024-01-06T03:49:19.868Z,98941.77
2024-01-06T03:51:47.359Z,98941.79
2024-01-06T03:54:14.794Z,98935.90
2024-01-06T03:56:42.181Z,98936.00
2024-01-06T03:59:09.640Z,98938.27
2024-01-06T04:01:37.301Z,98938.55
2024-01-06T04:04:05.017Z,98939.99
2024-01-06T04:06:33.166Z,98943.77
2024-01-06T04:09:01.083Z,98928.00
2024-01-06T04:11:28.484Z,98925.18
2024-01-06T04:13:55.911Z,98923.55
2024-01-06T04:16:23.313Z,98917.02
2024-01-06T04:18:51.553Z,98917.10
2024-01-06T04:21:19.094Z,98919.61
2024-01-06T04:23:46.526Z,98907.75
2024-01-06T04:26:14.426Z,98902.25
2024-01-06T04:28:41.848Z,98894.73
2024-01-06T04:31:12.023Z,98897.69
2024-01-06T04:33:41.806Z,98896.98
2024-01-06T04:36:09.505Z,98891.63
2024-01-06T04:38:37.015Z,98883.58
2024-01-06T04:41:04.445Z,98882.09
2024-01-06T04:43:31.856Z,98881.80
2024-01-06T04:45:59.516Z,98881.54
2024-01-06T04:48:27.153Z,98875.20
2024-01-06T04:50:54.736Z,98872.58
2024-01-06T04:53:22.111Z,98874.98
2024-01-06T04:55:49.536Z,98879.95
2024-01-06T04:58:16.950Z,98877.91
2024-01-06T05:00:44.415Z,98870.54
2024-01-06T05:03:11.950Z,98866.14
2024-01-06T05:05:39.573Z,98870.33
2024-01-06T05:08:07.228Z,98864.20
2024-01-06T05:10:34.644Z,98862.21
2024-01-06T05:13:02.123Z,98860.13
2024-01-06T05:15:29.572Z,98859.04
2024-01-06T05:17:57.147Z,98863.17
2024-01-06T05:20:24.639Z,98858.77
2024-01-06T05:22:52.074Z,98854.45
2024-01-06T05:25:20.376Z,98855.33
2024-01-06T05:27:47.811Z,98858.80
2024-01-06T05:30:15.377Z,98850.92
2024-01-06T05:32:42.886Z,98848.84
2024-01-06T05:35:10.396Z,98842.73
2024-01-06T05:37:37.840Z,98840.59
2024-01-06T05:40:06.626Z,98839.09
2024-01-06T05:42:34.279Z,98833.17
2024-01-06T05:45:01.747Z,98838.95
2024-01-06T05:47:29.390Z,98851.27
2024-01-06T05:49:56.865Z,98860.15
2024-01-06T05:52:24.790Z,98864.63
2024-01-06T05:54:52.275Z,98872.02
2024-01-06T05:57:19.923Z,98879.13
2024-01-06T05:59:47.386Z,98880.60
2024-01-06T06:02:14.979Z,98886.94
2024-01-06T06:04:42.513Z,98886.10
2024-01-06T06:07:10.058Z,98887.14
2024-01-06T06:09:39.181Z,98885.73
2024-01-06T06:12:06.786Z,98875.38
2024-01-06T06:14:34.203Z,98875.91
2024-01-06T06:17:01.617Z,98876.88
2024-01-06T06:19:29.179Z,98882.59
2024-01-06T06:21:56.674Z,98884.69
2024-01-06T06:24:24.184Z,98888.73
2024-01-06T06:26:51.604Z,98886.46
2024-01-06T06:29:19.039Z,98873.84
2024-01-06T06:31:47.950Z,98863.75
2024-01-06T06:34:15.643Z,98860.25
2024-01-06T06:36:43.316Z,98858.14
2024-01-06T06:39:10.855Z,98864.52
2024-01-06T06:41:38.276Z,98874.19
2024-01-06T06:44:05.829Z,98878.91
2024-01-06T06:46:33.237Z,98879.23
2024-01-06T06:49:00.753Z,98878.31
2024-01-06T06:51:28.913Z,98873.73
2024-01-06T06:53:56.494Z,98869.99
2024-01-06T06:56:23.851Z,98869.97
2024-01-06T06:58:51.249Z,98865.04
2024-01-06T07:01:18.768Z,98869.32
2024-01-06T07:03:46.313Z,98870.64
2024-01-06T07:06:14.286Z,98863.64
2024-01-06T07:08:43.306Z,98864.88
2024-01-06T07:11:12.747Z,98862.09
2024-01-06T07:13:40.727Z,98857.98
2024-01-06T07:16:17.686Z,98859.64
2024-01-06T07:18:47.400Z,98857.91
2024-01-06T07:21:15.264Z,98857.30
2024-01-06T07:23:43.799Z,98864.11
2024-01-06T07:26:11.221Z,98874.80
2024-01-06T07:28:38.632Z,98878.77
2024-01-06T07:31:06.718Z,98872.73
2024-01-06T07:33:34.481Z,98867.82
2024-01-06T07:36:02.199Z,98868.83
2024-01-06T07:38:32.194Z,98872.02
2024-01-06T07:40:59.801Z,98873.19
2024-01-06T07:43:27.239Z,98878.04
2024-01-06T07:45:54.888Z,98876.19
2024-01-06T07:48:22.775Z,98873.63
2024-01-06T07:50:50.923Z,98864.40
2024-01-06T07:53:18.315Z,98861.59
2024-01-06T07:55:45.742Z,98868.52
2024-01-06T07:58:13.500Z,98861.23
2024-01-06T08:00:41.227Z,98859.13
2024-01-06T08:03:08.785Z,98860.84
2024-01-06T08:05:36.204Z,98859.65
2024-01-06T08:08:05.302Z,98854.23
2024-01-06T08:10:32.682Z,98854.64
2024-01-06T08:13:00.426Z,98859.64
2024-01-06T08:15:28.008Z,98861.33
2024-01-06T08:17:55.610Z,98861.23
2024-01-06T08:20:23.167Z,98857.77
2024-01-06T08:22:50.615Z,98848.65
2024-01-06T08:25:18.587Z,98845.80
2024-01-06T08:27:46.004Z,98843.09
2024-01-06T08:30:13.798Z,98841.36
2024-01-06T08:32:41.442Z,98834.88
2024-01-06T08:35:09.416Z,98826.79
2024-01-06T08:37:36.821Z,98824.11
2024-01-06T08:40:06.051Z,98822.70
2024-01-06T08:42:33.621Z,98824.98
2024-01-06T08:45:01.114Z,98835.57
2024-01-06T08:47:28.534Z,98842.58
2024-01-06T08:49:56.126Z,98835.11
2024-01-06T08:52:23.587Z,98835.36
2024-01-06T08:54:51.271Z,98825.46
2024-01-06T08:57:19.361Z,98821.44
2024-01-06T08:59:46.943Z,98819.16
2024-01-06T09:02:14.391Z,98818.77
2024-01-06T09:04:41.809Z,98811.84
2024-01-06T09:07:09.508Z,98824.45
2024-01-06T09:09:36.957Z,98821.11
2024-01-06T09:12:04.618Z,98823.39
2024-01-06T09:14:32.006Z,98820.00
2024-01-06T09:16:59.506Z,98821.58
2024-01-06T09:19:29.500Z,98823.13
2024-01-06T09:21:57.069Z,98818.90
2024-01-06T09:24:24.548Z,98813.77
2024-01-06T09:26:52.758Z,98816.71
2024-01-06T09:29:20.191Z,98813.65
2024-01-06T09:31:47.699Z,98815.65
2024-01-06T09:34:15.302Z,98811.89
2024-01-06T09:36:42.865Z,98811.77
2024-01-06T09:39:10.335Z,98808.27
2024-01-06T09:41:37.775Z,98806.34
2024-01-06T09:44:05.290Z,98806.89
2024-01-06T09:46:32.885Z,98805.20
2024-01-06T09:49:00.870Z,98807.20
2024-01-06T09:51:30.211Z,98803.79
2024-01-06T09:53:58.720Z,98794.52
2024-01-06T09:56:26.690Z,98785.64
2024-01-06T09:58:54.203Z,98788.08
2024-01-06T10:01:21.897Z,98779.27
2024-01-06T10:03:49.578Z,98777.70
2024-01-06T10:06:17.278Z,98773.80
2024-01-06T10:08:51.134Z,98776.02
2024-01-06T10:11:19.261Z,98779.52
2024-01-06T10:13:46.703Z,98776.53
2024-01-06T10:16:14.525Z,98779.32
2024-01-06T10:18:42.269Z,98778.81
2024-01-06T10:21:10.021Z,98768.33
2024-01-06T10:23:37.862Z,98774.05
2024-01-06T10:26:05.924Z,98769.71
2024-01-06T10:28:34.027Z,98773.73
2024-01-06T10:31:02.695Z,98766.66
2024-01-06T10:33:30.627Z,98767.57
2024-01-06T10:35:58.098Z,98765.83
2024-01-06T10:38:26.792Z,98775.88
2024-01-06T10:40:58.377Z,98776.17
2024-01-06T10:43:30.304Z,98780.12
2024-01-06T10:45:59.314Z,98781.52
2024-01-06T10:48:27.771Z,98784.17
2024-01-06T10:50:55.294Z,98781.46
2024-01-06T10:53:24.010Z,98777.91
2024-01-06T10:55:56.251Z,98776.64
2024-01-06T10:58:24.132Z,98776.16
2024-01-06T11:00:51.855Z,98769.58
2024-01-06T11:03:19.645Z,98759.34
2024-01-06T11:05:47.235Z,98763.71
2024-01-06T11:08:14.703Z,98774.25
2024-01-06T11:10:42.163Z,98775.26
2024-01-06T11:13:13.478Z,98777.08
2024-01-06T11:15:44.953Z,98782.10
2024-01-06T11:18:42.622Z,98788.23
2024-01-06T11:21:18.557Z,98790.63
2024-01-06T11:23:46.410Z,98787.48
2024-01-06T11:26:15.639Z,98788.71
2024-01-06T11:28:46.906Z,98786.95
2024-01-06T11:31:14.569Z,98789.15
2024-01-06T11:33:45.094Z,98784.98
2024-01-06T11:36:13.569Z,98772.70
2024-01-06T11:38:41.176Z,98771.55
2024-01-06T11:41:09.138Z,98762.00
2024-01-06T11:43:40.372Z,98762.13
2024-01-06T11:46:08.832Z,98758.45
2024-01-06T11:48:36.787Z,98759.45
2024-01-06T11:51:04.329Z,98761.80
2024-01-06T11:53:31.765Z,98763.33
2024-01-06T11:56:01.282Z,98768.77
2024-01-06T11:58:29.910Z,98768.23
2024-01-06T12:00:58.631Z,98765.33
2024-01-06T12:03:27.785Z,98767.27
2024-01-06T12:06:02.832Z,98775.15
2024-01-06T12:08:30.600Z,98784.24
2024-01-06T12:11:04.555Z,98787.44
2024-01-06T12:13:32.296Z,98792.44
2024-01-06T12:15:59.789Z,98795.84
2024-01-06T12:18:27.209Z,98797.98
2024-01-06T12:20:54.614Z,98792.77
2024-01-06T12:23:29.104Z,98787.44
2024-01-06T12:25:56.943Z,98785.36
2024-01-06T12:28:24.524Z,98777.90
2024-01-06T12:30:51.983Z,98776.83
2024-01-06T12:33:19.597Z,98781.42
2024-01-06T12:35:47.097Z,98780.09
2024-01-06T12:38:14.529Z,98776.36
2024-01-06T12:40:42.341Z,98773.35
2024-01-06T12:43:10.093Z,98771.94
2024-01-06T12:45:37.531Z,98775.04
2024-01-06T12:48:05.229Z,98772.95
2024-01-06T12:50:32.683Z,98771.79
2024-01-06T12:53:00.090Z,98769.65
2024-01-06T12:55:27.515Z,98771.30
2024-01-06T12:57:54.949Z,98777.36
2024-01-06T13:00:22.429Z,98783.65
2024-01-06T13:02:49.834Z,98789.70
2024-01-06T13:05:17.324Z,98794.02
2024-01-06T13:07:44.796Z,98787.84
2024-01-06T13:10:12.327Z,98789.66
2024-01-06T13:12:39.787Z,98797.89
2024-01-06T13:15:08.016Z,98795.83
2024-01-06T13:17:35.496Z,98798.34
2024-01-06T13:20:03.164Z,98799.42
2024-01-06T13:22:31.588Z,98804.38
2024-01-06T13:25:00.346Z,98807.57
2024-01-06T13:27:30.901Z,98809.23
2024-01-06T13:29:58.330Z,98816.27
2024-01-06T13:32:28.246Z,98820.30
2024-01-06T13:34:59.389Z,98819.25
2024-01-06T13:37:27.019Z,98824.20
2024-01-06T13:39:54.489Z,98829.41
2024-01-06T13:42:22.812Z,98828.36
2024-01-06T13:44:50.300Z,98825.61
2024-01-06T13:47:17.766Z,98823.37
2024-01-06T13:49:45.363Z,98819.84
2024-01-06T13:52:12.814Z,98824.40
2024-01-06T13:54:40.225Z,98822.23
2024-01-06T13:57:07.626Z,98821.85
2024-01-06T13:59:38.565Z,98825.50
2024-01-06T14:02:07.183Z,98817.73
2024-01-06T14:04:34.716Z,98809.13
2024-01-06T14:07:05.171Z,98811.18
2024-01-06T14:09:32.960Z,98811.75
2024-01-06T14:12:00.350Z,98808.45
2024-01-06T14:14:27.743Z,98810.23
2024-01-06T14:16:55.130Z,98805.18
2024-01-06T14:19:22.580Z,98807.45
2024-01-06T14:21:51.827Z,98806.78
2024-01-06T14:24:24.705Z,98807.33
2024-01-06T14:26:52.372Z,98808.78
2024-01-06T14:29:19.806Z,98811.65
2024-01-06T14:31:47.256Z,98810.58
2024-01-06T14:34:15.170Z,98812.25
2024-01-06T14:36:49.017Z,98807.63
2024-01-06T14:39:19.795Z,98810.02
2024-01-06T14:41:47.651Z,98810.85
2024-01-06T14:44:15.190Z,98820.23
2024-01-06T14:46:42.836Z,98820.04
2024-01-06T14:49:10.454Z,98818.15
2024-01-06T14:51:37.931Z,98821.38
2024-01-06T14:54:05.711Z,98822.19
2024-01-06T14:56:33.141Z,98819.97
2024-01-06T14:59:00.619Z,98817.30
2024-01-06T15:01:28.297Z,98814.45
2024-01-06T15:03:55.866Z,98814.52
2024-01-06T15:06:23.478Z,98814.35
2024-01-06T15:08:50.993Z,98818.27
2024-01-06T15:11:18.406Z,98825.42
2024-01-06T15:13:46.644Z,98831.00
2024-01-06T15:16:14.056Z,98833.54
2024-01-06T15:18:41.573Z,98837.33
2024-01-06T15:21:09.022Z,98838.83
2024-01-06T15:23:36.403Z,98835.71
2024-01-06T15:26:05.021Z,98830.81
2024-01-06T15:28:33.961Z,98830.57
2024-01-06T15:31:01.725Z,98833.09
2024-01-06T15:33:29.391Z,98831.37
2024-01-06T15:35:56.887Z,98832.95
2024-01-06T15:38:24.283Z,98827.81
2024-01-06T15:40:51.926Z,98834.38
2024-01-06T15:43:19.465Z,98836.34
2024-01-06T15:45:46.945Z,98831.67
2024-01-06T15:48:14.429Z,98828.39
2024-01-06T15:50:41.887Z,98822.84
2024-01-06T15:53:09.319Z,98820.36
2024-01-06T15:55:36.793Z,98820.39
2024-01-06T15:58:04.322Z,98823.40
2024-01-06T16:00:34.372Z,98828.66
2024-01-06T16:03:03.772Z,98823.06
2024-01-06T16:05:31.257Z,98830.95
2024-01-06T16:07:58.705Z,98838.84
2024-01-06T16:10:26.121Z,98842.82
2024-01-06T16:12:53.534Z,98836.48
2024-01-06T16:15:21.697Z,98831.44
2024-01-06T16:17:49.737Z,98840.56
2024-01-06T16:20:17.290Z,98846.73
2024-01-06T16:22:47.342Z,98852.23
2024-01-06T16:25:15.004Z,98850.45
2024-01-06T16:27:42.532Z,98850.91
2024-01-06T16:30:10.448Z,98850.10
2024-01-06T16:32:37.843Z,98843.63
2024-01-06T16:35:05.264Z,98839.73
2024-01-06T16:37:32.755Z,98841.50
2024-01-06T16:40:00.348Z,98846.95
2024-01-06T16:42:28.156Z,98845.09
2024-01-06T16:44:55.629Z,98845.84
2024-01-06T16:47:23.133Z,98841.59
2024-01-06T16:49:50.600Z,98843.30
2024-01-06T16:52:18.056Z,98847.36
2024-01-06T16:54:45.495Z,98855.24
2024-01-06T16:57:12.905Z,98856.64
2024-01-06T16:59:40.391Z,98867.59
2024-01-06T17:02:08.299Z,98868.02
2024-01-06T17:04:36.443Z,98868.31
2024-01-06T17:07:05.679Z,98870.00
2024-01-06T17:09:33.257Z,98864.54
2024-01-06T17:12:00.756Z,98859.92
2024-01-06T17:14:28.207Z,98864.81
2024-01-06T17:16:55.880Z,98866.26
2024-01-06T17:19:23.417Z,98871.20
2024-01-06T17:21:50.965Z,98880.25
2024-01-06T17:24:18.403Z,98887.04
2024-01-06T17:26:45.797Z,98892.98
2024-01-06T17:29:13.217Z,98889.38
2024-01-06T17:31:40.884Z,98888.29
2024-01-06T17:34:09.687Z,98891.86
2024-01-06T17:36:37.438Z,98898.45
2024-01-06T17:39:05.313Z,98901.20
2024-01-06T17:41:37.806Z,98905.02
2024-01-06T17:44:10.805Z,98904.83
2024-01-06T17:46:38.240Z,98901.95
2024-01-06T17:49:07.735Z,98903.71
2024-01-06T17:51:35.889Z,98906.88
2024-01-06T17:54:03.318Z,98917.54
2024-01-06T17:56:30.819Z,98915.31
2024-01-06T17:59:02.600Z,98907.98
2024-01-06T18:01:30.235Z,98914.30
2024-01-06T18:03:58.327Z,98914.27
2024-01-06T18:06:26.332Z,98915.89
2024-01-06T18:08:53.910Z,98912.81
2024-01-06T18:11:21.318Z,98917.20
2024-01-06T18:13:48.873Z,98916.09
2024-01-06T18:16:16.356Z,98916.09
2024-01-06T18:18:43.978Z,98917.40
2024-01-06T18:21:11.511Z,98923.09
2024-01-06T18:23:38.890Z,98921.11
2024-01-06T18:26:06.291Z,98919.84
2024-01-06T18:28:33.753Z,98929.90
2024-01-06T18:31:01.223Z,98941.91
2024-01-06T18:33:28.939Z,98944.85
2024-01-06T18:35:56.433Z,98939.77
2024-01-06T18:38:23.840Z,98935.16
2024-01-06T18:40:51.270Z,98940.27
2024-01-06T18:43:18.700Z,98948.90
2024-01-06T18:45:46.160Z,98952.79
2024-01-06T18:48:16.235Z,98955.21
2024-01-06T18:50:45.566Z,98952.38
2024-01-06T18:53:14.453Z,98954.91
2024-01-06T18:55:41.940Z,98957.50
2024-01-06T18:58:10.629Z,98949.84
2024-01-06T19:00:38.282Z,98947.44
2024-01-06T19:03:05.859Z,98948.04
2024-01-06T19:05:34.635Z,98947.20
2024-01-06T19:08:02.258Z,98948.74
2024-01-06T19:10:29.654Z,98943.36
2024-01-06T19:12:57.329Z,98951.11
2024-01-06T19:15:25.145Z,98953.63
2024-01-06T19:17:52.734Z,98960.84
2024-01-06T19:20:20.246Z,98968.65
2024-01-06T19:22:58.052Z,98977.73
2024-01-06T19:25:33.969Z,98975.08
2024-01-06T19:28:01.452Z,98975.02
2024-01-06T19:30:28.958Z,98977.87
2024-01-06T19:32:56.439Z,98987.42
2024-01-06T19:35:23.835Z,98989.66
2024-01-06T19:37:51.222Z,98976.06
2024-01-06T19:40:19.700Z,98978.85
2024-01-06T19:42:48.922Z,98970.36
2024-01-06T19:45:16.449Z,98978.66
2024-01-06T19:47:44.081Z,98978.38
2024-01-06T19:50:11.635Z,98990.14
2024-01-06T19:52:39.037Z,98978.65
2024-01-06T19:55:07.577Z,98980.02
2024-01-06T19:57:35.056Z,98979.06
2024-01-06T20:00:04.816Z,98984.64
2024-01-06T20:02:37.182Z,98991.09
2024-01-06T20:05:06.376Z,98994.02
2024-01-06T20:07:37.455Z,98999.77
2024-01-06T20:10:05.201Z,99002.46
2024-01-06T20:12:32.629Z,99002.30
2024-01-06T20:15:00.053Z,99005.09
2024-01-06T20:17:27.530Z,99015.31
2024-01-06T20:19:55.395Z,99009.52
2024-01-06T20:22:23.012Z,99016.80
2024-01-06T20:24:50.723Z,99016.75
2024-01-06T20:27:18.502Z,99012.70
2024-01-06T20:29:45.957Z,99011.40
2024-01-06T20:32:13.697Z,99011.52
2024-01-06T20:34:41.657Z,99005.22
2024-01-06T20:37:09.189Z,99007.19
2024-01-06T20:39:36.608Z,99006.55
2024-01-06T20:42:04.314Z,98993.80
2024-01-06T20:44:31.913Z,98994.80
2024-01-06T20:46:59.956Z,99000.10
2024-01-06T20:49:29.687Z,99003.61
2024-01-06T20:51:57.922Z,99007.30
2024-01-06T20:54:25.531Z,99000.48
2024-01-06T20:56:53.288Z,99000.50
2024-01-06T20:59:20.695Z,99005.91
2024-01-06T21:01:48.387Z,99004.96
2024-01-06T21:04:16.033Z,99013.23
2024-01-06T21:06:43.681Z,99018.04
2024-01-06T21:09:11.065Z,99015.67
2024-01-06T21:11:40.986Z,99008.58
2024-01-06T21:14:09.701Z,99010.13
2024-01-06T21:16:43.115Z,99008.36
2024-01-06T21:19:10.615Z,99008.80
2024-01-06T21:21:38.109Z,99006.52
2024-01-06T21:24:05.611Z,99003.91
2024-01-06T21:26:35.035Z,99002.93
2024-01-06T21:29:02.468Z,99012.97
2024-01-06T21:31:29.983Z,99010.40
2024-01-06T21:33:57.507Z,99009.38
2024-01-06T21:36:25.053Z,99008.31
2024-01-06T21:38:52.478Z,99016.48
2024-01-06T21:41:21.201Z,99027.33
2024-01-06T21:43:48.675Z,99027.39
2024-01-06T21:46:16.112Z,99025.13
2024-01-06T21:48:43.654Z,99017.98
2024-01-06T21:51:11.243Z,99027.67
2024-01-06T21:53:38.669Z,99031.56
2024-01-06T21:56:06.245Z,99033.91
2024-01-06T21:58:33.693Z,99036.98
2024-01-06T22:01:01.298Z,99039.03
2024-01-06T22:03:28.860Z,99047.84
2024-01-06T22:05:56.417Z,99047.32
2024-01-06T22:08:23.889Z,99044.10
2024-01-06T22:10:51.623Z,99048.67
2024-01-06T22:13:19.067Z,99040.38
2024-01-06T22:15:46.636Z,99038.28
2024-01-06T22:18:14.170Z,99036.40
2024-01-06T22:20:41.717Z,99038.02
2024-01-06T22:23:09.138Z,99043.29
2024-01-06T22:25:36.556Z,99047.21
2024-01-06T22:28:04.631Z,99047.13
2024-01-06T22:30:32.971Z,99055.38
2024-01-06T22:33:02.299Z,99058.88
2024-01-06T22:35:29.780Z,99059.69
2024-01-06T22:37:57.188Z,99061.42
2024-01-06T22:40:24.668Z,99067.93
2024-01-06T22:42:52.190Z,99070.53
2024-01-06T22:45:19.649Z,99063.56
2024-01-06T22:47:47.152Z,99069.06
2024-01-06T22:50:14.573Z,99066.05
2024-01-06T22:52:42.052Z,99075.45
2024-01-06T22:55:09.437Z,99075.64
2024-01-06T22:57:38.130Z,99078.42
2024-01-06T23:00:12.658Z,99089.09
2024-01-06T23:02:40.134Z,99092.54
2024-01-06T23:05:07.741Z,99090.64
2024-01-06T23:07:35.190Z,99099.31
2024-01-06T23:10:02.756Z,99101.55
2024-01-06T23:12:30.235Z,99108.18
2024-01-06T23:14:57.656Z,99116.91
2024-01-06T23:17:25.074Z,99119.56
2024-01-06T23:19:52.505Z,99127.50
2024-01-06T23:22:19.927Z,99129.16
2024-01-06T23:24:47.678Z,99131.65
2024-01-06T23:27:15.150Z,99131.81
2024-01-06T23:29:42.541Z,99129.00
2024-01-06T23:32:09.948Z,99125.23
2024-01-06T23:34:42.615Z,99119.23
2024-01-06T23:37:11.223Z,99119.48
2024-01-06T23:39:38.930Z,99120.79
2024-01-06T23:42:06.618Z,99116.45
2024-01-06T23:44:34.048Z,99120.48
2024-01-06T23:47:01.557Z,99118.23
2024-01-06T23:49:29.156Z,99108.69
2024-01-06T23:51:56.739Z,99116.80
2024-01-06T23:54:24.301Z,99119.80
2024-01-06T23:56:51.772Z,99121.45
2024-01-06T23:59:19.892Z,99119.79
